sensor_id;sensor_type;location;lat;lon;timestamp;temperature;humidity
15713;DHT22;7957;51.608;6.916;2022-08-19T00:01:56;20.60;99.90
15713;DHT22;7957;51.608;6.916;2022-08-19T00:04:25;20.60;99.90
15713;DHT22;7957;51.608;6.916;2022-08-19T00:06:53;20.60;1.00
15713;DHT22;7957;51.608;6.916;2022-08-19T00:09:22;20.60;99.90
15713;DHT22;7957;51.608;6.916;2022-08-19T00:11:49;20.60;1.00
15713;DHT22;7957;51.608;6.916;2022-08-19T00:14:17;20.60;99.90
15713;DHT22;7957;51.608;6.916;2022-08-19T00:16:45;20.50;1.00
15713;DHT22;7957;51.608;6.916;2022-08-19T00:19:13;20.50;1.00
15713;DHT22;7957;51.608;6.916;2022-08-19T00:21:41;20.50;1.00
15713;DHT22;7957;51.608;6.916;2022-08-19T00:24:10;20.50;1.00
15713;DHT22;7957;51.608;6.916;2022-08-19T00:26:39;20.50;1.00
15713;DHT22;7957;51.608;6.916;2022-08-19T00:29:08;20.40;1.00
15713;DHT22;7957;51.608;6.916;2022-08-19T00:31:35;20.40;99.90
15713;DHT22;7957;51.608;6.916;2022-08-19T00:34:02;20.40;99.90
15713;DHT22;7957;51.608;6.916;2022-08-19T00:36:29;20.40;99.90
15713;DHT22;7957;51.608;6.916;2022-08-19T00:38:58;20.40;99.90
15713;DHT22;7957;51.608;6.916;2022-08-19T00:41:25;20.30;1.00
15713;DHT22;7957;51.608;6.916;2022-08-19T00:44:03;20.30;99.90
15713;DHT22;7957;51.608;6.916;2022-08-19T00:46:31;20.40;1.00
15713;DHT22;7957;51.608;6.916;2022-08-19T00:48:59;20.30;1.00
15713;DHT22;7957;51.608;6.916;2022-08-19T00:51:27;20.30;1.00
15713;DHT22;7957;51.608;6.916;2022-08-19T00:53:57;20.30;1.00
15713;DHT22;7957;51.608;6.916;2022-08-19T00:56:25;20.20;1.00
15713;DHT22;7957;51.608;6.916;2022-08-19T00:58:54;20.20;1.00
15713;DHT22;7957;51.608;6.916;2022-08-19T01:01:22;20.20;1.00
15713;DHT22;7957;51.608;6.916;2022-08-19T01:03:49;20.20;1.00
15713;DHT22;7957;51.608;6.916;2022-08-19T01:06:16;20.20;1.00
15713;DHT22;7957;51.608;6.916;2022-08-19T01:08:43;20.20;1.00
15713;DHT22;7957;51.608;6.916;2022-08-19T01:11:10;20.20;1.00
15713;DHT22;7957;51.608;6.916;2022-08-19T01:13:38;20.10;1.00
15713;DHT22;7957;51.608;6.916;2022-08-19T01:16:08;20.10;1.00
15713;DHT22;7957;51.608;6.916;2022-08-19T01:18:41;20.10;1.00
15713;DHT22;7957;51.608;6.916;2022-08-19T01:21:12;20.10;1.00
15713;DHT22;7957;51.608;6.916;2022-08-19T01:23:45;20.00;1.00
15713;DHT22;7957;51.608;6.916;2022-08-19T01:26:15;20.10;1.00
15713;DHT22;7957;51.608;6.916;2022-08-19T01:28:43;20.00;1.00
15713;DHT22;7957;51.608;6.916;2022-08-19T01:31:13;20.10;1.00
15713;DHT22;7957;51.608;6.916;2022-08-19T01:33:40;20.00;1.00
15713;DHT22;7957;51.608;6.916;2022-08-19T01:36:09;20.00;1.00
15713;DHT22;7957;51.608;6.916;2022-08-19T01:38:39;20.00;1.00
15713;DHT22;7957;51.608;6.916;2022-08-19T01:41:09;19.90;1.00
15713;DHT22;7957;51.608;6.916;2022-08-19T01:43:36;19.90;1.00
15713;DHT22;7957;51.608;6.916;2022-08-19T01:46:04;19.90;1.00
15713;DHT22;7957;51.608;6.916;2022-08-19T01:48:34;19.90;1.00
15713;DHT22;7957;51.608;6.916;2022-08-19T01:51:01;19.90;1.00
15713;DHT22;7957;51.608;6.916;2022-08-19T01:53:28;19.80;1.00
15713;DHT22;7957;51.608;6.916;2022-08-19T01:55:55;19.80;1.00
15713;DHT22;7957;51.608;6.916;2022-08-19T01:58:26;19.80;1.00
15713;DHT22;7957;51.608;6.916;2022-08-19T02:00:54;19.80;1.00
15713;DHT22;7957;51.608;6.916;2022-08-19T02:03:21;19.80;1.00
15713;DHT22;7957;51.608;6.916;2022-08-19T02:05:54;19.80;1.00
15713;DHT22;7957;51.608;6.916;2022-08-19T02:08:21;19.80;1.00
15713;DHT22;7957;51.608;6.916;2022-08-19T02:10:48;19.80;1.00
15713;DHT22;7957;51.608;6.916;2022-08-19T02:13:16;19.80;1.00
15713;DHT22;7957;51.608;6.916;2022-08-19T02:15:45;19.70;1.00
15713;DHT22;7957;51.608;6.916;2022-08-19T02:18:12;19.70;1.00
15713;DHT22;7957;51.608;6.916;2022-08-19T02:20:40;19.70;1.00
15713;DHT22;7957;51.608;6.916;2022-08-19T02:23:07;19.70;1.00
15713;DHT22;7957;51.608;6.916;2022-08-19T02:25:34;19.70;1.00
15713;DHT22;7957;51.608;6.916;2022-08-19T02:28:01;19.60;1.00
15713;DHT22;7957;51.608;6.916;2022-08-19T02:30:28;19.70;1.00
15713;DHT22;7957;51.608;6.916;2022-08-19T02:32:56;19.60;1.00
15713;DHT22;7957;51.608;6.916;2022-08-19T02:35:23;19.60;1.00
15713;DHT22;7957;51.608;6.916;2022-08-19T02:37:50;19.60;1.00
15713;DHT22;7957;51.608;6.916;2022-08-19T02:40:35;19.60;1.00
15713;DHT22;7957;51.608;6.916;2022-08-19T02:43:03;19.60;1.00
15713;DHT22;7957;51.608;6.916;2022-08-19T02:45:32;19.60;1.00
15713;DHT22;7957;51.608;6.916;2022-08-19T02:48:01;19.60;1.00
15713;DHT22;7957;51.608;6.916;2022-08-19T02:50:28;19.60;1.00
15713;DHT22;7957;51.608;6.916;2022-08-19T02:52:55;19.50;1.00
15713;DHT22;7957;51.608;6.916;2022-08-19T02:55:22;19.50;1.00
15713;DHT22;7957;51.608;6.916;2022-08-19T02:57:49;19.50;1.00
15713;DHT22;7957;51.608;6.916;2022-08-19T03:00:16;19.50;1.00
15713;DHT22;7957;51.608;6.916;2022-08-19T03:02:43;19.50;1.00
15713;DHT22;7957;51.608;6.916;2022-08-19T03:05:13;19.50;1.00
15713;DHT22;7957;51.608;6.916;2022-08-19T03:07:40;19.50;1.00
15713;DHT22;7957;51.608;6.916;2022-08-19T03:10:07;19.50;1.00
15713;DHT22;7957;51.608;6.916;2022-08-19T03:12:36;19.50;1.00
15713;DHT22;7957;51.608;6.916;2022-08-19T03:15:04;19.40;1.00
15713;DHT22;7957;51.608;6.916;2022-08-19T03:17:32;19.40;1.00
15713;DHT22;7957;51.608;6.916;2022-08-19T03:20:00;19.40;1.00
15713;DHT22;7957;51.608;6.916;2022-08-19T03:22:28;19.40;1.00
15713;DHT22;7957;51.608;6.916;2022-08-19T03:24:55;19.40;1.00
15713;DHT22;7957;51.608;6.916;2022-08-19T03:27:22;19.40;1.00
15713;DHT22;7957;51.608;6.916;2022-08-19T03:29:50;19.40;1.00
15713;DHT22;7957;51.608;6.916;2022-08-19T03:32:17;19.30;1.00
15713;DHT22;7957;51.608;6.916;2022-08-19T03:34:44;19.30;1.00
15713;DHT22;7957;51.608;6.916;2022-08-19T03:37:11;19.30;1.00
15713;DHT22;7957;51.608;6.916;2022-08-19T03:39:41;19.30;1.00
15713;DHT22;7957;51.608;6.916;2022-08-19T03:42:08;19.30;1.00
15713;DHT22;7957;51.608;6.916;2022-08-19T03:44:36;19.30;1.00
15713;DHT22;7957;51.608;6.916;2022-08-19T03:47:04;19.30;1.00
15713;DHT22;7957;51.608;6.916;2022-08-19T03:49:32;19.30;1.00
15713;DHT22;7957;51.608;6.916;2022-08-19T03:52:01;19.20;1.00
15713;DHT22;7957;51.608;6.916;2022-08-19T03:54:30;19.20;1.00
15713;DHT22;7957;51.608;6.916;2022-08-19T03:56:58;19.20;1.00
15713;DHT22;7957;51.608;6.916;2022-08-19T03:59:29;19.20;1.00
15713;DHT22;7957;51.608;6.916;2022-08-19T04:01:59;19.20;1.00
15713;DHT22;7957;51.608;6.916;2022-08-19T04:04:26;19.20;1.00
15713;DHT22;7957;51.608;6.916;2022-08-19T04:06:54;19.20;1.00
15713;DHT22;7957;51.608;6.916;2022-08-19T04:09:21;19.20;1.00
15713;DHT22;7957;51.608;6.916;2022-08-19T04:11:50;19.10;1.00
15713;DHT22;7957;51.608;6.916;2022-08-19T04:14:22;19.20;1.00
15713;DHT22;7957;51.608;6.916;2022-08-19T04:16:49;19.10;1.00
15713;DHT22;7957;51.608;6.916;2022-08-19T04:19:17;19.10;1.00
15713;DHT22;7957;51.608;6.916;2022-08-19T04:21:47;19.10;1.00
15713;DHT22;7957;51.608;6.916;2022-08-19T04:24:15;19.10;1.00
15713;DHT22;7957;51.608;6.916;2022-08-19T04:26:42;19.10;1.00
15713;DHT22;7957;51.608;6.916;2022-08-19T04:29:12;19.10;1.00
15713;DHT22;7957;51.608;6.916;2022-08-19T04:31:43;19.10;1.00
15713;DHT22;7957;51.608;6.916;2022-08-19T04:34:12;19.10;1.00
15713;DHT22;7957;51.608;6.916;2022-08-19T04:36:41;19.00;1.00
15713;DHT22;7957;51.608;6.916;2022-08-19T04:39:13;19.00;1.00
15713;DHT22;7957;51.608;6.916;2022-08-19T04:41:40;19.00;1.00
15713;DHT22;7957;51.608;6.916;2022-08-19T04:44:25;19.00;1.00
15713;DHT22;7957;51.608;6.916;2022-08-19T04:46:54;19.00;1.00
15713;DHT22;7957;51.608;6.916;2022-08-19T04:49:22;19.00;1.00
15713;DHT22;7957;51.608;6.916;2022-08-19T04:51:50;19.00;1.00
15713;DHT22;7957;51.608;6.916;2022-08-19T04:54:20;18.90;1.00
15713;DHT22;7957;51.608;6.916;2022-08-19T04:56:48;19.00;1.00
15713;DHT22;7957;51.608;6.916;2022-08-19T04:59:16;18.90;1.00
15713;DHT22;7957;51.608;6.916;2022-08-19T05:01:44;18.90;1.00
15713;DHT22;7957;51.608;6.916;2022-08-19T05:04:18;18.90;1.00
15713;DHT22;7957;51.608;6.916;2022-08-19T05:06:46;18.90;1.00
15713;DHT22;7957;51.608;6.916;2022-08-19T05:09:14;18.90;1.00
15713;DHT22;7957;51.608;6.916;2022-08-19T05:11:41;19.00;1.00
15713;DHT22;7957;51.608;6.916;2022-08-19T05:14:09;18.90;1.00
15713;DHT22;7957;51.608;6.916;2022-08-19T05:16:36;18.90;1.00
15713;DHT22;7957;51.608;6.916;2022-08-19T05:19:03;19.00;1.00
15713;DHT22;7957;51.608;6.916;2022-08-19T05:21:48;19.00;1.00
15713;DHT22;7957;51.608;6.916;2022-08-19T05:24:32;19.00;1.00
15713;DHT22;7957;51.608;6.916;2022-08-19T05:27:01;19.00;1.00
15713;DHT22;7957;51.608;6.916;2022-08-19T05:29:31;19.00;1.00
15713;DHT22;7957;51.608;6.916;2022-08-19T05:32:00;19.00;1.00
15713;DHT22;7957;51.608;6.916;2022-08-19T05:34:27;19.00;1.00
15713;DHT22;7957;51.608;6.916;2022-08-19T05:36:59;19.10;1.00
15713;DHT22;7957;51.608;6.916;2022-08-19T05:39:29;19.10;1.00
15713;DHT22;7957;51.608;6.916;2022-08-19T05:41:58;19.10;1.00
15713;DHT22;7957;51.608;6.916;2022-08-19T05:44:26;19.20;1.00
15713;DHT22;7957;51.608;6.916;2022-08-19T05:46:57;19.20;1.00
15713;DHT22;7957;51.608;6.916;2022-08-19T05:49:25;19.20;1.00
15713;DHT22;7957;51.608;6.916;2022-08-19T05:51:53;19.30;1.00
15713;DHT22;7957;51.608;6.916;2022-08-19T05:54:23;19.30;1.00
15713;DHT22;7957;51.608;6.916;2022-08-19T05:56:51;19.40;1.00
15713;DHT22;7957;51.608;6.916;2022-08-19T05:59:20;19.40;1.00
15713;DHT22;7957;51.608;6.916;2022-08-19T06:01:49;19.40;1.00
15713;DHT22;7957;51.608;6.916;2022-08-19T06:04:18;19.40;1.00
15713;DHT22;7957;51.608;6.916;2022-08-19T06:06:45;19.40;1.00
15713;DHT22;7957;51.608;6.916;2022-08-19T06:09:12;19.40;1.00
15713;DHT22;7957;51.608;6.916;2022-08-19T06:11:43;19.50;1.00
15713;DHT22;7957;51.608;6.916;2022-08-19T06:14:13;19.50;1.00
15713;DHT22;7957;51.608;6.916;2022-08-19T06:16:41;19.50;1.00
15713;DHT22;7957;51.608;6.916;2022-08-19T06:19:10;19.50;1.00
15713;DHT22;7957;51.608;6.916;2022-08-19T06:21:39;19.50;1.00
15713;DHT22;7957;51.608;6.916;2022-08-19T06:24:09;19.60;1.00
15713;DHT22;7957;51.608;6.916;2022-08-19T06:26:39;19.60;1.00
15713;DHT22;7957;51.608;6.916;2022-08-19T06:29:09;19.60;1.00
15713;DHT22;7957;51.608;6.916;2022-08-19T06:31:36;19.60;1.00
15713;DHT22;7957;51.608;6.916;2022-08-19T06:34:04;19.70;1.00
15713;DHT22;7957;51.608;6.916;2022-08-19T06:36:33;19.70;1.00
15713;DHT22;7957;51.608;6.916;2022-08-19T06:39:01;19.70;1.00
15713;DHT22;7957;51.608;6.916;2022-08-19T06:41:29;19.80;1.00
15713;DHT22;7957;51.608;6.916;2022-08-19T06:43:57;19.80;1.00
15713;DHT22;7957;51.608;6.916;2022-08-19T06:46:25;19.80;1.00
15713;DHT22;7957;51.608;6.916;2022-08-19T06:48:52;19.80;1.00
15713;DHT22;7957;51.608;6.916;2022-08-19T06:51:21;19.80;1.00
15713;DHT22;7957;51.608;6.916;2022-08-19T06:53:50;19.90;1.00
15713;DHT22;7957;51.608;6.916;2022-08-19T06:56:19;19.90;1.00
15713;DHT22;7957;51.608;6.916;2022-08-19T06:58:46;19.90;1.00
15713;DHT22;7957;51.608;6.916;2022-08-19T07:01:13;19.90;1.00
15713;DHT22;7957;51.608;6.916;2022-08-19T07:03:41;19.90;1.00
15713;DHT22;7957;51.608;6.916;2022-08-19T07:06:16;20.00;1.00
15713;DHT22;7957;51.608;6.916;2022-08-19T07:08:44;20.00;1.00
15713;DHT22;7957;51.608;6.916;2022-08-19T07:11:14;20.00;1.00
15713;DHT22;7957;51.608;6.916;2022-08-19T07:13:41;20.00;1.00
15713;DHT22;7957;51.608;6.916;2022-08-19T07:16:11;20.10;1.00
15713;DHT22;7957;51.608;6.916;2022-08-19T07:18:38;20.10;1.00
15713;DHT22;7957;51.608;6.916;2022-08-19T07:21:09;20.10;1.00
15713;DHT22;7957;51.608;6.916;2022-08-19T07:23:36;20.20;1.00
15713;DHT22;7957;51.608;6.916;2022-08-19T07:26:05;20.30;1.00
15713;DHT22;7957;51.608;6.916;2022-08-19T07:28:32;20.30;1.00
15713;DHT22;7957;51.608;6.916;2022-08-19T07:30:59;20.40;40.30
15713;DHT22;7957;51.608;6.916;2022-08-19T07:33:28;20.50;99.90
15713;DHT22;7957;51.608;6.916;2022-08-19T07:35:57;20.60;99.90
15713;DHT22;7957;51.608;6.916;2022-08-19T07:38:26;20.80;1.00
15713;DHT22;7957;51.608;6.916;2022-08-19T07:40:53;20.90;1.00
15713;DHT22;7957;51.608;6.916;2022-08-19T07:43:20;21.00;1.00
15713;DHT22;7957;51.608;6.916;2022-08-19T07:45:50;21.00;1.00
15713;DHT22;7957;51.608;6.916;2022-08-19T07:48:17;21.10;7.30
15713;DHT22;7957;51.608;6.916;2022-08-19T07:50:44;21.20;1.00
15713;DHT22;7957;51.608;6.916;2022-08-19T07:53:11;21.20;1.00
15713;DHT22;7957;51.608;6.916;2022-08-19T07:55:40;21.30;1.00
15713;DHT22;7957;51.608;6.916;2022-08-19T07:58:07;21.30;1.00
15713;DHT22;7957;51.608;6.916;2022-08-19T08:00:34;21.40;1.00
15713;DHT22;7957;51.608;6.916;2022-08-19T08:03:01;21.50;1.00
15713;DHT22;7957;51.608;6.916;2022-08-19T08:05:28;21.60;1.00
15713;DHT22;7957;51.608;6.916;2022-08-19T08:08:12;21.80;1.00
15713;DHT22;7957;51.608;6.916;2022-08-19T08:10:57;21.90;1.00
15713;DHT22;7957;51.608;6.916;2022-08-19T08:13:25;22.00;1.00
15713;DHT22;7957;51.608;6.916;2022-08-19T08:15:53;22.10;1.00
15713;DHT22;7957;51.608;6.916;2022-08-19T08:18:20;22.10;1.00
15713;DHT22;7957;51.608;6.916;2022-08-19T08:20:47;22.10;1.00
15713;DHT22;7957;51.608;6.916;2022-08-19T08:23:14;22.20;99.90
15713;DHT22;7957;51.608;6.916;2022-08-19T08:25:50;22.20;99.90
15713;DHT22;7957;51.608;6.916;2022-08-19T08:28:19;22.20;99.90
15713;DHT22;7957;51.608;6.916;2022-08-19T08:30:47;22.20;99.90
15713;DHT22;7957;51.608;6.916;2022-08-19T08:33:14;22.30;99.90
15713;DHT22;7957;51.608;6.916;2022-08-19T08:35:43;22.40;99.90
15713;DHT22;7957;51.608;6.916;2022-08-19T08:38:11;22.40;99.90
15713;DHT22;7957;51.608;6.916;2022-08-19T08:40:43;22.50;99.90
15713;DHT22;7957;51.608;6.916;2022-08-19T08:43:21;22.50;99.90
15713;DHT22;7957;51.608;6.916;2022-08-19T08:45:53;22.60;99.90
15713;DHT22;7957;51.608;6.916;2022-08-19T08:48:27;22.60;99.90
15713;DHT22;7957;51.608;6.916;2022-08-19T08:50:57;22.60;99.90
15713;DHT22;7957;51.608;6.916;2022-08-19T08:53:25;22.60;99.90
15713;DHT22;7957;51.608;6.916;2022-08-19T08:55:52;22.60;99.90
15713;DHT22;7957;51.608;6.916;2022-08-19T08:58:27;22.70;99.90
15713;DHT22;7957;51.608;6.916;2022-08-19T09:00:56;22.80;87.00
15713;DHT22;7957;51.608;6.916;2022-08-19T09:03:25;22.90;1.00
15713;DHT22;7957;51.608;6.916;2022-08-19T09:05:59;22.90;1.00
15713;DHT22;7957;51.608;6.916;2022-08-19T09:08:35;23.10;1.00
15713;DHT22;7957;51.608;6.916;2022-08-19T09:11:08;23.10;1.00
15713;DHT22;7957;51.608;6.916;2022-08-19T09:13:44;23.20;1.00
15713;DHT22;7957;51.608;6.916;2022-08-19T09:16:16;23.30;1.00
15713;DHT22;7957;51.608;6.916;2022-08-19T09:18:48;23.40;1.00
15713;DHT22;7957;51.608;6.916;2022-08-19T09:21:19;23.40;1.00
15713;DHT22;7957;51.608;6.916;2022-08-19T09:23:46;23.40;1.00
15713;DHT22;7957;51.608;6.916;2022-08-19T09:26:15;23.30;1.00
15713;DHT22;7957;51.608;6.916;2022-08-19T09:28:46;23.30;1.00
15713;DHT22;7957;51.608;6.916;2022-08-19T09:31:15;23.40;1.00
15713;DHT22;7957;51.608;6.916;2022-08-19T09:33:41;23.40;99.90
15713;DHT22;7957;51.608;6.916;2022-08-19T09:36:11;23.40;99.90
15713;DHT22;7957;51.608;6.916;2022-08-19T09:38:39;23.50;99.90
15713;DHT22;7957;51.608;6.916;2022-08-19T09:41:10;23.50;99.90
15713;DHT22;7957;51.608;6.916;2022-08-19T09:43:40;23.60;99.90
15713;DHT22;7957;51.608;6.916;2022-08-19T09:46:09;23.70;99.90
15713;DHT22;7957;51.608;6.916;2022-08-19T09:48:36;23.80;99.90
15713;DHT22;7957;51.608;6.916;2022-08-19T09:51:04;23.90;99.90
15713;DHT22;7957;51.608;6.916;2022-08-19T09:53:33;24.00;99.90
15713;DHT22;7957;51.608;6.916;2022-08-19T09:56:00;24.10;99.90
15713;DHT22;7957;51.608;6.916;2022-08-19T09:58:27;24.30;99.90
15713;DHT22;7957;51.608;6.916;2022-08-19T10:00:55;24.40;99.90
15713;DHT22;7957;51.608;6.916;2022-08-19T10:03:25;24.50;99.90
15713;DHT22;7957;51.608;6.916;2022-08-19T10:05:53;24.60;99.90
15713;DHT22;7957;51.608;6.916;2022-08-19T10:08:23;24.70;99.90
15713;DHT22;7957;51.608;6.916;2022-08-19T10:10:51;24.90;99.90
15713;DHT22;7957;51.608;6.916;2022-08-19T10:13:20;25.10;99.90
15713;DHT22;7957;51.608;6.916;2022-08-19T10:15:51;25.20;99.30
15713;DHT22;7957;51.608;6.916;2022-08-19T10:18:20;25.30;79.40
15713;DHT22;7957;51.608;6.916;2022-08-19T10:20:49;25.40;65.00
15713;DHT22;7957;51.608;6.916;2022-08-19T10:23:17;25.50;27.20
15713;DHT22;7957;51.608;6.916;2022-08-19T10:25:45;25.50;18.70
15713;DHT22;7957;51.608;6.916;2022-08-19T10:28:12;25.70;9.40
15713;DHT22;7957;51.608;6.916;2022-08-19T10:30:39;25.70;1.00
15713;DHT22;7957;51.608;6.916;2022-08-19T10:33:06;25.80;1.00
15713;DHT22;7957;51.608;6.916;2022-08-19T10:35:33;25.80;1.00
15713;DHT22;7957;51.608;6.916;2022-08-19T10:38:03;25.80;1.00
15713;DHT22;7957;51.608;6.916;2022-08-19T10:40:30;25.90;1.00
15713;DHT22;7957;51.608;6.916;2022-08-19T10:42:57;25.90;1.00
15713;DHT22;7957;51.608;6.916;2022-08-19T10:45:24;26.00;1.00
15713;DHT22;7957;51.608;6.916;2022-08-19T10:47:52;25.90;1.00
15713;DHT22;7957;51.608;6.916;2022-08-19T10:50:19;25.90;1.00
15713;DHT22;7957;51.608;6.916;2022-08-19T10:53:06;25.90;1.00
15713;DHT22;7957;51.608;6.916;2022-08-19T10:55:34;26.00;1.00
15713;DHT22;7957;51.608;6.916;2022-08-19T10:58:20;26.10;1.00
15713;DHT22;7957;51.608;6.916;2022-08-19T11:00:52;26.20;1.00
15713;DHT22;7957;51.608;6.916;2022-08-19T11:03:20;26.30;1.00
15713;DHT22;7957;51.608;6.916;2022-08-19T11:05:57;26.20;1.00
15713;DHT22;7957;51.608;6.916;2022-08-19T11:08:25;26.30;1.00
15713;DHT22;7957;51.608;6.916;2022-08-19T11:10:53;26.30;1.00
15713;DHT22;7957;51.608;6.916;2022-08-19T11:13:28;26.50;1.00
15713;DHT22;7957;51.608;6.916;2022-08-19T11:16:02;26.70;1.00
15713;DHT22;7957;51.608;6.916;2022-08-19T11:18:29;27.10;1.00
15713;DHT22;7957;51.608;6.916;2022-08-19T11:21:05;27.30;1.00
15713;DHT22;7957;51.608;6.916;2022-08-19T11:23:33;27.60;1.00
15713;DHT22;7957;51.608;6.916;2022-08-19T11:26:00;27.90;1.00
15713;DHT22;7957;51.608;6.916;2022-08-19T11:28:28;28.00;1.00
15713;DHT22;7957;51.608;6.916;2022-08-19T11:30:54;28.20;1.00
15713;DHT22;7957;51.608;6.916;2022-08-19T11:33:21;28.40;1.00
15713;DHT22;7957;51.608;6.916;2022-08-19T11:35:48;28.80;1.00
15713;DHT22;7957;51.608;6.916;2022-08-19T11:38:15;29.20;1.00
15713;DHT22;7957;51.608;6.916;2022-08-19T11:40:54;29.50;1.00
15713;DHT22;7957;51.608;6.916;2022-08-19T11:43:21;29.80;1.00
15713;DHT22;7957;51.608;6.916;2022-08-19T11:45:47;29.90;1.00
15713;DHT22;7957;51.608;6.916;2022-08-19T11:48:14;29.70;1.00
15713;DHT22;7957;51.608;6.916;2022-08-19T11:50:42;29.50;1.00
15713;DHT22;7957;51.608;6.916;2022-08-19T11:53:09;29.20;1.00
15713;DHT22;7957;51.608;6.916;2022-08-19T11:55:37;29.00;1.00
15713;DHT22;7957;51.608;6.916;2022-08-19T11:58:07;28.90;1.00
15713;DHT22;7957;51.608;6.916;2022-08-19T12:00:34;29.20;1.00
15713;DHT22;7957;51.608;6.916;2022-08-19T12:03:02;29.50;1.00
15713;DHT22;7957;51.608;6.916;2022-08-19T12:05:29;29.90;1.00
15713;DHT22;7957;51.608;6.916;2022-08-19T12:07:56;30.20;1.00
15713;DHT22;7957;51.608;6.916;2022-08-19T12:10:23;30.50;1.00
15713;DHT22;7957;51.608;6.916;2022-08-19T12:12:50;30.70;1.00
15713;DHT22;7957;51.608;6.916;2022-08-19T12:15:18;31.00;1.00
15713;DHT22;7957;51.608;6.916;2022-08-19T12:17:45;31.30;1.00
15713;DHT22;7957;51.608;6.916;2022-08-19T12:20:13;31.40;1.00
15713;DHT22;7957;51.608;6.916;2022-08-19T12:22:41;31.30;1.00
15713;DHT22;7957;51.608;6.916;2022-08-19T12:25:09;31.30;1.00
15713;DHT22;7957;51.608;6.916;2022-08-19T12:27:37;31.20;1.00
15713;DHT22;7957;51.608;6.916;2022-08-19T12:30:06;31.10;1.00
15713;DHT22;7957;51.608;6.916;2022-08-19T12:32:35;31.10;1.00
15713;DHT22;7957;51.608;6.916;2022-08-19T12:35:02;31.20;1.00
15713;DHT22;7957;51.608;6.916;2022-08-19T12:37:29;31.20;1.00
15713;DHT22;7957;51.608;6.916;2022-08-19T12:39:57;31.20;1.00
15713;DHT22;7957;51.608;6.916;2022-08-19T12:42:24;31.20;1.00
15713;DHT22;7957;51.608;6.916;2022-08-19T12:44:51;31.30;1.00
15713;DHT22;7957;51.608;6.916;2022-08-19T12:47:18;31.40;1.00
15713;DHT22;7957;51.608;6.916;2022-08-19T12:49:48;31.60;1.00
15713;DHT22;7957;51.608;6.916;2022-08-19T12:52:15;31.60;1.00
15713;DHT22;7957;51.608;6.916;2022-08-19T12:54:42;31.80;1.00
15713;DHT22;7957;51.608;6.916;2022-08-19T12:57:10;31.80;1.00
15713;DHT22;7957;51.608;6.916;2022-08-19T12:59:38;31.90;1.00
15713;DHT22;7957;51.608;6.916;2022-08-19T13:02:07;32.00;1.00
15713;DHT22;7957;51.608;6.916;2022-08-19T13:04:34;32.10;1.00
15713;DHT22;7957;51.608;6.916;2022-08-19T13:07:07;32.00;1.00
15713;DHT22;7957;51.608;6.916;2022-08-19T13:09:35;32.00;1.00
15713;DHT22;7957;51.608;6.916;2022-08-19T13:12:02;32.10;1.00
15713;DHT22;7957;51.608;6.916;2022-08-19T13:14:33;32.20;1.00
15713;DHT22;7957;51.608;6.916;2022-08-19T13:17:00;32.20;1.00
15713;DHT22;7957;51.608;6.916;2022-08-19T13:19:27;32.00;1.00
15713;DHT22;7957;51.608;6.916;2022-08-19T13:21:53;32.00;1.00
15713;DHT22;7957;51.608;6.916;2022-08-19T13:24:22;31.90;1.00
15713;DHT22;7957;51.608;6.916;2022-08-19T13:26:49;32.00;1.00
15713;DHT22;7957;51.608;6.916;2022-08-19T13:29:16;32.10;1.00
15713;DHT22;7957;51.608;6.916;2022-08-19T13:32:06;32.10;1.00
15713;DHT22;7957;51.608;6.916;2022-08-19T13:34:50;32.10;1.00
15713;DHT22;7957;51.608;6.916;2022-08-19T13:37:17;32.10;1.00
15713;DHT22;7957;51.608;6.916;2022-08-19T13:40:08;32.00;99.90
15713;DHT22;7957;51.608;6.916;2022-08-19T13:42:36;31.80;99.90
15713;DHT22;7957;51.608;6.916;2022-08-19T13:45:04;31.50;99.90
15713;DHT22;7957;51.608;6.916;2022-08-19T13:47:31;31.40;99.90
15713;DHT22;7957;51.608;6.916;2022-08-19T13:49:59;31.40;99.90
15713;DHT22;7957;51.608;6.916;2022-08-19T13:52:26;31.30;99.90
15713;DHT22;7957;51.608;6.916;2022-08-19T13:54:53;31.20;99.90
15713;DHT22;7957;51.608;6.916;2022-08-19T13:57:21;31.20;99.90
15713;DHT22;7957;51.608;6.916;2022-08-19T13:59:48;31.20;99.90
15713;DHT22;7957;51.608;6.916;2022-08-19T14:02:15;31.10;99.90
15713;DHT22;7957;51.608;6.916;2022-08-19T14:04:42;30.90;99.90
15713;DHT22;7957;51.608;6.916;2022-08-19T14:07:09;30.70;99.90
15713;DHT22;7957;51.608;6.916;2022-08-19T14:09:36;30.50;99.90
15713;DHT22;7957;51.608;6.916;2022-08-19T14:12:03;30.40;99.90
15713;DHT22;7957;51.608;6.916;2022-08-19T14:14:31;30.20;99.90
15713;DHT22;7957;51.608;6.916;2022-08-19T14:16:59;30.00;99.90
15713;DHT22;7957;51.608;6.916;2022-08-19T14:19:26;29.90;99.90
15713;DHT22;7957;51.608;6.916;2022-08-19T14:21:53;29.70;99.90
15713;DHT22;7957;51.608;6.916;2022-08-19T14:24:22;29.60;99.90
15713;DHT22;7957;51.608;6.916;2022-08-19T14:26:48;29.50;1.00
15713;DHT22;7957;51.608;6.916;2022-08-19T14:29:16;29.50;1.00
15713;DHT22;7957;51.608;6.916;2022-08-19T14:31:44;29.40;1.00
15713;DHT22;7957;51.608;6.916;2022-08-19T14:34:11;29.20;1.00
15713;DHT22;7957;51.608;6.916;2022-08-19T14:36:38;29.20;1.00
15713;DHT22;7957;51.608;6.916;2022-08-19T14:39:05;29.10;1.00
15713;DHT22;7957;51.608;6.916;2022-08-19T14:41:32;29.10;1.00
15713;DHT22;7957;51.608;6.916;2022-08-19T14:43:59;29.00;1.00
15713;DHT22;7957;51.608;6.916;2022-08-19T14:46:27;29.00;1.00
15713;DHT22;7957;51.608;6.916;2022-08-19T14:48:56;28.90;1.00
15713;DHT22;7957;51.608;6.916;2022-08-19T14:51:24;28.90;1.00
15713;DHT22;7957;51.608;6.916;2022-08-19T14:53:52;28.80;1.00
15713;DHT22;7957;51.608;6.916;2022-08-19T14:56:21;28.80;1.00
15713;DHT22;7957;51.608;6.916;2022-08-19T14:58:49;28.80;1.00
15713;DHT22;7957;51.608;6.916;2022-08-19T15:01:17;28.70;1.00
15713;DHT22;7957;51.608;6.916;2022-08-19T15:03:46;28.70;1.00
15713;DHT22;7957;51.608;6.916;2022-08-19T15:06:15;28.70;1.00
15713;DHT22;7957;51.608;6.916;2022-08-19T15:08:42;28.60;1.00
15713;DHT22;7957;51.608;6.916;2022-08-19T15:11:11;28.50;1.00
15713;DHT22;7957;51.608;6.916;2022-08-19T15:13:39;28.50;1.00
15713;DHT22;7957;51.608;6.916;2022-08-19T15:16:07;28.40;1.00
15713;DHT22;7957;51.608;6.916;2022-08-19T15:18:34;28.40;1.00
15713;DHT22;7957;51.608;6.916;2022-08-19T15:21:02;28.40;1.00
15713;DHT22;7957;51.608;6.916;2022-08-19T15:23:30;28.30;1.00
15713;DHT22;7957;51.608;6.916;2022-08-19T15:25:58;28.30;1.00
15713;DHT22;7957;51.608;6.916;2022-08-19T15:28:25;28.10;1.00
15713;DHT22;7957;51.608;6.916;2022-08-19T15:30:53;28.10;1.00
15713;DHT22;7957;51.608;6.916;2022-08-19T15:33:19;28.10;1.00
15713;DHT22;7957;51.608;6.916;2022-08-19T15:35:47;28.10;1.00
15713;DHT22;7957;51.608;6.916;2022-08-19T15:38:16;28.10;1.00
15713;DHT22;7957;51.608;6.916;2022-08-19T15:40:45;28.00;1.00
15713;DHT22;7957;51.608;6.916;2022-08-19T15:43:13;28.00;1.00
15713;DHT22;7957;51.608;6.916;2022-08-19T15:45:40;28.00;1.00
15713;DHT22;7957;51.608;6.916;2022-08-19T15:48:07;27.90;1.00
15713;DHT22;7957;51.608;6.916;2022-08-19T15:50:34;27.90;1.00
15713;DHT22;7957;51.608;6.916;2022-08-19T15:53:03;27.80;99.90
15713;DHT22;7957;51.608;6.916;2022-08-19T15:55:32;27.80;99.90
15713;DHT22;7957;51.608;6.916;2022-08-19T15:58:00;27.70;99.90
15713;DHT22;7957;51.608;6.916;2022-08-19T16:00:45;27.60;99.90
15713;DHT22;7957;51.608;6.916;2022-08-19T16:03:29;27.50;99.90
15713;DHT22;7957;51.608;6.916;2022-08-19T16:06:13;27.40;99.90
15713;DHT22;7957;51.608;6.916;2022-08-19T16:08:52;27.40;99.90
15713;DHT22;7957;51.608;6.916;2022-08-19T16:11:21;27.40;1.00